createdAt,value
2022-09-15T00:01:14.828Z,98929.38
2022-09-15T00:03:43.313Z,98935.44
2022-09-15T00:06:11.635Z,98930.34
2022-09-15T00:08:40.919Z,98928.59
2022-09-15T00:11:11.176Z,98927.84
2022-09-15T00:13:40.513Z,98926.16
2022-09-15T00:16:11.662Z,98917.53
2022-09-15T00:18:43.527Z,98920.88
2022-09-15T00:21:13.424Z,98914.69
2022-09-15T00:23:42.440Z,98917.44
2022-09-15T00:26:13.412Z,98913.38
2022-09-15T00:28:41.452Z,98896.03
2022-09-15T00:31:12.817Z,98907.41
2022-09-15T00:33:40.793Z,98900.63
2022-09-15T00:36:11.161Z,98907.81
2022-09-15T00:38:39.725Z,98917.41
2022-09-15T00:41:10.776Z,98915.69
2022-09-15T00:43:51.990Z,98918.31
2022-09-15T00:46:21.919Z,98920.91
2022-09-15T00:48:54.864Z,98922.78
2022-09-15T00:51:25.952Z,98913.16
2022-09-15T00:53:54.388Z,98914.09
2022-09-15T00:56:24.412Z,98916.78
2022-09-15T00:58:55.804Z,98905.66
2022-09-15T01:01:26.663Z,98897.91
2022-09-15T01:03:55.382Z,98892.78
2022-09-15T01:06:30.578Z,98899.75
2022-09-15T01:09:07.370Z,98896.25
2022-09-15T01:11:36.837Z,98894.53
2022-09-15T01:14:04.688Z,98892.91
2022-09-15T01:16:45.066Z,98891.09
2022-09-15T01:19:33.830Z,98886.59
2022-09-15T01:22:14.449Z,98888.22
2022-09-15T01:25:03.849Z,98892.59
2022-09-15T01:28:10.863Z,98889.09
2022-09-15T01:30:42.449Z,98890.81
2022-09-15T01:33:21.547Z,98878.66
2022-09-15T01:36:00.853Z,98869.06
2022-09-15T01:38:42.948Z,98862.94
2022-09-15T01:41:16.535Z,98864.66
2022-09-15T01:43:51.486Z,98866.31
2022-09-15T01:46:24.852Z,98863.59
2022-09-15T01:48:54.992Z,98859.19
2022-09-15T01:51:24.373Z,98859.09
2022-09-15T01:53:53.666Z,98863.28
2022-09-15T01:56:21.549Z,98863.09
2022-09-15T01:58:51.313Z,98875.00
2022-09-15T02:01:31.980Z,98864.44
2022-09-15T02:04:06.173Z,98876.41
2022-09-15T02:06:40.599Z,98873.75
2022-09-15T02:09:13.678Z,98871.78
2022-09-15T02:11:52.948Z,98872.63
2022-09-15T02:14:33.731Z,98883.19
2022-09-15T02:17:03.535Z,98857.00
2022-09-15T02:19:34.704Z,98871.00
2022-09-15T02:22:07.695Z,98865.59
2022-09-15T02:24:39.590Z,98864.94
2022-09-15T02:27:11.032Z,98864.94
2022-09-15T02:29:41.044Z,98863.31
2022-09-15T02:32:12.694Z,98857.16
2022-09-15T02:34:45.265Z,98865.00
2022-09-15T02:37:13.931Z,98866.81
2022-09-15T02:39:58.849Z,98862.28
2022-09-15T02:42:27.803Z,98864.94
2022-09-15T02:44:55.724Z,98875.28
2022-09-15T02:47:25.482Z,98868.53
2022-09-15T02:49:53.856Z,98859.78
2022-09-15T02:52:21.916Z,98869.31
2022-09-15T02:54:52.176Z,98869.31
2022-09-15T02:57:19.737Z,98867.53
2022-09-15T03:00:05.233Z,98861.59
2022-09-15T03:02:34.496Z,98866.81
2022-09-15T03:05:02.083Z,98873.75
2022-09-15T03:07:30.040Z,98862.63
2022-09-15T03:09:58.241Z,98868.53
2022-09-15T03:12:26.086Z,98864.09
2022-09-15T03:14:53.602Z,98873.81
2022-09-15T03:17:21.175Z,98872.09
2022-09-15T03:19:50.655Z,98873.00
2022-09-15T03:22:18.300Z,98875.63
2022-09-15T03:24:45.841Z,98873.00
2022-09-15T03:27:13.352Z,98873.00
2022-09-15T03:29:40.925Z,98874.81
2022-09-15T03:32:08.568Z,98869.47
2022-09-15T03:34:36.087Z,98869.44
2022-09-15T03:37:05.486Z,98870.22
2022-09-15T03:39:33.130Z,98883.28
2022-09-15T03:42:01.064Z,98878.06
2022-09-15T03:44:28.741Z,98871.91
2022-09-15T03:46:57.996Z,98874.53
2022-09-15T03:49:26.210Z,98885.81
2022-09-15T03:51:53.759Z,98877.97
2022-09-15T03:54:22.638Z,98888.41
2022-09-15T03:56:51.825Z,98889.31
2022-09-15T03:59:20.708Z,98882.25
2022-09-15T04:01:49.824Z,98894.44
2022-09-15T04:04:18.562Z,98896.06
2022-09-15T04:06:46.228Z,98885.69
2022-09-15T04:09:13.835Z,98893.63
2022-09-15T04:11:42.771Z,98891.03
2022-09-15T04:14:10.538Z,98888.50
2022-09-15T04:16:38.158Z,98896.31
2022-09-15T04:19:05.703Z,98897.16
2022-09-15T04:21:33.231Z,98893.88
2022-09-15T04:24:00.794Z,98886.16
2022-09-15T04:26:31.140Z,98893.16
2022-09-15T04:29:04.288Z,98889.63
2022-09-15T04:31:33.909Z,98895.69
2022-09-15T04:34:01.583Z,98887.25
2022-09-15T04:36:31.309Z,98889.06
2022-09-15T04:38:59.407Z,98893.47
2022-09-15T04:41:28.103Z,98885.72
2022-09-15T04:43:55.652Z,98884.97
2022-09-15T04:46:24.547Z,98888.44
2022-09-15T04:48:52.238Z,98890.19
2022-09-15T04:51:22.410Z,98887.75
2022-09-15T04:53:51.516Z,98897.50
2022-09-15T04:56:21.154Z,98890.31
2022-09-15T04:58:50.692Z,98888.44
2022-09-15T05:01:20.434Z,98894.41
2022-09-15T05:03:49.942Z,98890.88
2022-09-15T05:06:18.927Z,98896.81
2022-09-15T05:08:48.642Z,98899.72
2022-09-15T05:11:16.849Z,98905.56
2022-09-15T05:13:44.645Z,98908.91
2022-09-15T05:16:15.084Z,98910.75
2022-09-15T05:18:44.693Z,98907.31
2022-09-15T05:21:15.908Z,98915.44
2022-09-15T05:23:43.659Z,98915.44
2022-09-15T05:26:14.535Z,98924.16
2022-09-15T05:28:42.625Z,98914.50
2022-09-15T05:31:12.473Z,98903.97
2022-09-15T05:33:40.403Z,98909.34
2022-09-15T05:36:08.376Z,98921.31
2022-09-15T05:38:37.291Z,98926.53
2022-09-15T05:41:05.814Z,98912.88
2022-09-15T05:43:34.006Z,98912.81
2022-09-15T05:46:02.244Z,98921.59
2022-09-15T05:48:30.290Z,98918.09
2022-09-15T05:50:58.167Z,98917.84
2022-09-15T05:53:26.542Z,98923.19
2022-09-15T05:55:57.580Z,98927.09
2022-09-15T05:58:25.735Z,98921.44
2022-09-15T06:00:54.327Z,98930.28
2022-09-15T06:03:27.539Z,98931.91
2022-09-15T06:06:00.005Z,98944.06
2022-09-15T06:08:31.407Z,98939.09
2022-09-15T06:11:04.829Z,98938.25
2022-09-15T06:13:32.372Z,98940.81
2022-09-15T06:16:08.538Z,98937.28
2022-09-15T06:18:37.245Z,98937.13
2022-09-15T06:21:06.947Z,98938.31
2022-09-15T06:23:34.567Z,98933.03
2022-09-15T06:26:11.200Z,98934.91
2022-09-15T06:28:39.631Z,98941.03
2022-09-15T06:31:12.265Z,98949.06
2022-09-15T06:33:42.992Z,98953.50
2022-09-15T06:36:11.177Z,98953.50
2022-09-15T06:38:39.158Z,98950.88
2022-09-15T06:41:07.519Z,98953.28
2022-09-15T06:43:37.035Z,98951.63
2022-09-15T06:46:06.075Z,98957.69
2022-09-15T06:48:33.751Z,98965.50
2022-09-15T06:51:02.103Z,98968.38
2022-09-15T06:53:30.949Z,98971.00
2022-09-15T06:56:03.512Z,98974.44
2022-09-15T06:58:31.217Z,98964.06
2022-09-15T07:01:03.498Z,98966.72
2022-09-15T07:03:31.243Z,98976.44
2022-09-15T07:05:58.925Z,98965.94
2022-09-15T07:08:26.459Z,98955.13
2022-09-15T07:10:54.905Z,98958.84
2022-09-15T07:13:22.456Z,98958.72
2022-09-15T07:15:53.409Z,98965.88
2022-09-15T07:18:22.464Z,98959.53
2022-09-15T07:20:50.390Z,98968.00
2022-09-15T07:23:18.500Z,98963.53
2022-09-15T07:25:46.280Z,98981.22
2022-09-15T07:28:13.898Z,98969.28
2022-09-15T07:30:41.988Z,98972.63
2022-09-15T07:33:12.121Z,98998.47
2022-09-15T07:35:44.094Z,99011.59
2022-09-15T07:38:12.064Z,99019.75
2022-09-15T07:40:39.764Z,99024.53
2022-09-15T07:43:07.735Z,99001.22
2022-09-15T07:45:36.271Z,99032.81
2022-09-15T07:48:04.042Z,99039.94
2022-09-15T07:50:31.587Z,99052.59
2022-09-15T07:53:00.480Z,99056.66
2022-09-15T07:55:28.160Z,99058.94
2022-09-15T07:57:59.241Z,99064.91
2022-09-15T08:00:27.929Z,99067.66
2022-09-15T08:02:55.609Z,99077.31
2022-09-15T08:05:26.944Z,99074.69
2022-09-15T08:07:54.766Z,99074.72
2022-09-15T08:10:25.058Z,99081.72
2022-09-15T08:12:52.729Z,99083.66
2022-09-15T08:15:20.574Z,99088.97
2022-09-15T08:17:48.199Z,99096.03
2022-09-15T08:20:15.972Z,99100.44
2022-09-15T08:22:45.448Z,99105.75
2022-09-15T08:25:13.690Z,99101.31
2022-09-15T08:27:42.568Z,99108.13
2022-09-15T08:30:10.936Z,99096.66
2022-09-15T08:32:38.517Z,99101.72
2022-09-15T08:35:07.492Z,99095.56
2022-09-15T08:37:35.153Z,99102.44
2022-09-15T08:40:03.442Z,99103.22
2022-09-15T08:42:31.318Z,99112.72
2022-09-15T08:45:04.072Z,99117.94
2022-09-15T08:47:36.193Z,99128.34
2022-09-15T08:50:10.204Z,99126.66
2022-09-15T08:52:42.075Z,99131.03
2022-09-15T08:55:16.933Z,99140.63
2022-09-15T08:57:44.894Z,99138.94
2022-09-15T09:00:17.379Z,99139.03
2022-09-15T09:03:04.927Z,99137.16
2022-09-15T09:05:45.536Z,99149.34
2022-09-15T09:08:33.975Z,99147.72
2022-09-15T09:11:12.073Z,99156.44
2022-09-15T09:13:47.501Z,99155.59
2022-09-15T09:16:42.291Z,99159.19
2022-09-15T09:19:22.865Z,99173.13
2022-09-15T09:21:56.802Z,99167.00
2022-09-15T09:24:35.464Z,99165.22
2022-09-15T09:27:04.035Z,99158.22
2022-09-15T09:29:36.029Z,99158.19
2022-09-15T09:32:16.047Z,99156.41
2022-09-15T09:34:49.029Z,99152.00
2022-09-15T09:37:18.207Z,99166.75
2022-09-15T09:39:47.026Z,99175.53
2022-09-15T09:42:18.230Z,99179.09
2022-09-15T09:44:47.057Z,99184.38
2022-09-15T09:47:16.050Z,99184.34
2022-09-15T09:49:47.827Z,99181.75
2022-09-15T09:52:36.183Z,99177.38
2022-09-15T09:55:17.378Z,99178.16
2022-09-15T09:57:45.284Z,99182.50
2022-09-15T10:00:32.529Z,99180.94
2022-09-15T10:03:12.285Z,99185.22
2022-09-15T10:05:39.973Z,99189.56
2022-09-15T10:08:07.941Z,99199.13
2022-09-15T10:10:35.613Z,99190.63
2022-09-15T10:13:04.284Z,99187.91
2022-09-15T10:15:34.231Z,99190.44
2022-09-15T10:18:03.945Z,99193.06
2022-09-15T10:20:37.497Z,99202.56
2022-09-15T10:23:07.637Z,99206.91
2022-09-15T10:28:27.775Z,99196.53
2022-09-15T10:31:04.691Z,99187.75
2022-09-15T10:33:35.215Z,99185.91
2022-09-15T10:36:06.310Z,99197.97
2022-09-15T10:38:45.907Z,99196.16
2022-09-15T10:41:24.512Z,99208.25
2022-09-15T10:44:15.249Z,99206.50
2022-09-15T10:46:53.581Z,99213.31
2022-09-15T10:49:41.498Z,99209.94
2022-09-15T10:52:19.701Z,99212.50
2022-09-15T10:55:07.746Z,99215.97
2022-09-15T10:57:54.354Z,99217.69
2022-09-15T11:00:24.029Z,99215.94
2022-09-15T11:03:08.104Z,99217.69
2022-09-15T11:05:51.868Z,99220.34
2022-09-15T11:08:35.980Z,99225.41
2022-09-15T11:11:13.692Z,99225.25
2022-09-15T11:13:53.249Z,99219.94
2022-09-15T11:16:34.928Z,99231.09
2022-09-15T11:19:17.816Z,99232.69
2022-09-15T11:21:51.184Z,99228.00
2022-09-15T11:24:31.784Z,99241.56
2022-09-15T11:27:04.357Z,99243.78
2022-09-15T11:29:37.249Z,99244.38
2022-09-15T11:32:10.909Z,99256.22
2022-09-15T11:34:43.575Z,99256.03
2022-09-15T11:37:17.876Z,99242.91
2022-09-15T11:39:49.753Z,99254.84
2022-09-15T11:42:25.009Z,99244.97
2022-09-15T11:44:52.691Z,99254.94
2022-09-15T11:47:28.960Z,99256.41
2022-09-15T11:49:59.252Z,99260.75
2022-09-15T11:52:51.047Z,99256.34
2022-09-15T11:55:28.222Z,99261.97
2022-09-15T11:58:06.613Z,99262.63
2022-09-15T12:00:39.776Z,99265.78
2022-09-15T12:03:27.081Z,99270.72
2022-09-15T12:05:59.327Z,99270.28
2022-09-15T12:08:34.563Z,99264.88
2022-09-15T12:11:08.717Z,99264.91
2022-09-15T12:13:37.742Z,99268.09
2022-09-15T12:16:06.048Z,99276.63
2022-09-15T12:18:42.843Z,99277.56
2022-09-15T12:21:18.421Z,99289.38
2022-09-15T12:23:56.479Z,99283.50
2022-09-15T12:26:27.018Z,99289.28
2022-09-15T12:28:57.304Z,99290.28
2022-09-15T12:31:34.017Z,99285.00
2022-09-15T12:34:04.259Z,99294.28
2022-09-15T12:36:36.614Z,99290.34
2022-09-15T12:39:20.769Z,99283.41
2022-09-15T12:41:50.005Z,99283.03
2022-09-15T12:44:32.963Z,99287.56
2022-09-15T12:47:01.868Z,99291.25
2022-09-15T12:49:32.172Z,99293.06
2022-09-15T12:52:01.970Z,99298.84
2022-09-15T12:54:33.684Z,99293.78
2022-09-15T12:57:02.232Z,99299.28
2022-09-15T12:59:30.605Z,99296.72
2022-09-15T13:01:58.884Z,99296.97
2022-09-15T13:04:54.322Z,99308.31
2022-09-15T13:07:38.481Z,99303.00
2022-09-15T13:10:30.656Z,99293.75
2022-09-15T13:13:17.126Z,99287.22
2022-09-15T13:15:49.650Z,99292.22
2022-09-15T13:18:19.566Z,99296.72
2022-09-15T13:20:54.900Z,99302.13
2022-09-15T13:23:26.233Z,99296.25
2022-09-15T13:25:58.825Z,99294.78
2022-09-15T13:28:28.016Z,99291.34
2022-09-15T13:31:10.802Z,99294.72
2022-09-15T13:40:28.139Z,99282.66
2022-09-15T13:43:14.694Z,99275.44
2022-09-15T13:45:54.704Z,99278.34
2022-09-15T13:48:39.653Z,99272.34
2022-09-15T13:51:16.593Z,99275.34
2022-09-15T13:53:51.458Z,99257.38
2022-09-15T13:56:24.409Z,99265.53
2022-09-15T13:58:58.289Z,99259.13
2022-09-15T14:01:30.401Z,99262.53
2022-09-15T14:04:00.663Z,99247.03
2022-09-15T14:06:30.223Z,99259.34
2022-09-15T14:09:03.818Z,99264.00
2022-09-15T14:11:33.238Z,99255.44
2022-09-15T14:14:02.953Z,99255.06
2022-09-15T14:16:34.715Z,99250.81
2022-09-15T14:19:04.323Z,99242.00
2022-09-15T14:21:33.579Z,99247.78
2022-09-15T14:24:05.229Z,99240.47
2022-09-15T14:26:36.269Z,99246.53
2022-09-15T14:29:07.440Z,99240.72
2022-09-15T14:31:38.325Z,99246.16
2022-09-15T14:34:08.170Z,99243.47
2022-09-15T14:36:35.820Z,99246.31
2022-09-15T14:39:17.744Z,99250.91
2022-09-15T14:41:46.250Z,99249.16
2022-09-15T14:47:21.060Z,99241.53
2022-09-15T14:49:49.236Z,99240.19
2022-09-15T14:52:25.523Z,99237.81
2022-09-15T14:54:57.683Z,99251.41
2022-09-15T14:57:31.086Z,99248.78
2022-09-15T15:00:05.136Z,99251.47
2022-09-15T15:02:56.418Z,99241.72
2022-09-15T15:05:27.500Z,99243.13
2022-09-15T15:07:56.234Z,99243.97
2022-09-15T15:10:26.493Z,99240.84
2022-09-15T15:12:57.219Z,99234.47
2022-09-15T15:15:26.443Z,99240.41
2022-09-15T15:17:55.336Z,99232.78
2022-09-15T15:20:24.935Z,99236.66
2022-09-15T15:23:15.301Z,99237.75
2022-09-15T15:25:43.173Z,99240.81
2022-09-15T15:28:29.900Z,99235.25
2022-09-15T15:31:13.113Z,99232.25
2022-09-15T15:33:46.239Z,99234.41
2022-09-15T15:36:13.896Z,99237.66
2022-09-15T15:38:47.290Z,99231.56
2022-09-15T15:41:22.133Z,99236.97
2022-09-15T15:43:58.200Z,99244.47
2022-09-15T15:47:02.612Z,99245.22
2022-09-15T15:49:33.121Z,99234.50
2022-09-15T15:52:01.615Z,99234.03
2022-09-15T15:54:29.632Z,99240.00
2022-09-15T15:57:21.027Z,99231.63
2022-09-15T15:59:48.505Z,99236.94
2022-09-15T16:02:16.207Z,99236.31
2022-09-15T16:04:45.104Z,99238.38
2022-09-15T16:07:18.597Z,99238.66
2022-09-15T16:09:46.783Z,99238.34
2022-09-15T16:12:14.484Z,99236.28
2022-09-15T16:14:42.138Z,99239.59
2022-09-15T16:17:10.753Z,99241.91
2022-09-15T16:19:38.316Z,99240.69
2022-09-15T16:22:07.243Z,99250.38
2022-09-15T16:24:34.781Z,99250.59
2022-09-15T16:27:04.383Z,99254.66
2022-09-15T16:29:36.154Z,99251.84
2022-09-15T16:32:06.943Z,99257.41
2022-09-15T16:34:34.484Z,99253.88
2022-09-15T16:37:02.205Z,99261.94
2022-09-15T16:39:31.394Z,99253.81
2022-09-15T16:44:27.384Z,99258.69
2022-09-15T16:46:55.028Z,99263.19
2022-09-15T16:49:23.442Z,99255.66
2022-09-15T16:51:51.137Z,99261.09
2022-09-15T16:54:21.835Z,99263.09
2022-09-15T16:56:52.063Z,99269.84
2022-09-15T16:59:19.902Z,99270.22
2022-09-15T17:01:48.005Z,99281.22
2022-09-15T17:04:18.996Z,99275.16
2022-09-15T17:06:46.617Z,99278.09
2022-09-15T17:09:14.163Z,99273.09
2022-09-15T17:11:41.692Z,99282.66
2022-09-15T17:14:14.929Z,99283.63
2022-09-15T17:16:42.672Z,99278.69
2022-09-15T17:19:10.248Z,99285.00
2022-09-15T17:21:37.895Z,99286.47
2022-09-15T17:24:05.653Z,99287.31
2022-09-15T17:26:33.361Z,99276.88
2022-09-15T17:29:00.877Z,99279.59
2022-09-15T17:31:29.864Z,99276.22
2022-09-15T17:33:57.915Z,99276.22
2022-09-15T17:36:26.032Z,99285.91
2022-09-15T17:38:53.739Z,99285.22
2022-09-15T17:41:22.650Z,99281.09
2022-09-15T17:43:50.718Z,99276.13
2022-09-15T17:46:18.361Z,99273.66
2022-09-15T17:48:47.337Z,99279.91
2022-09-15T17:51:17.898Z,99269.03
2022-09-15T17:53:46.777Z,99277.88
2022-09-15T17:56:14.392Z,99290.22
2022-09-15T17:58:42.515Z,99283.53
2022-09-15T18:01:12.664Z,99284.50
2022-09-15T18:03:40.337Z,99289.00
2022-09-15T18:06:11.109Z,99292.66
2022-09-15T18:08:38.908Z,99287.59
2022-09-15T18:11:07.756Z,99296.44
2022-09-15T18:13:35.867Z,99290.47
2022-09-15T18:16:05.679Z,99288.09
2022-09-15T18:18:33.549Z,99295.06
2022-09-15T18:21:01.274Z,99296.06
2022-09-15T18:23:30.246Z,99305.69
2022-09-15T18:25:58.291Z,99305.84
2022-09-15T18:28:25.948Z,99302.47
2022-09-15T18:30:53.507Z,99301.72
2022-09-15T18:33:22.872Z,99307.03
2022-09-15T18:35:52.004Z,99300.19
2022-09-15T18:38:20.304Z,99305.53
2022-09-15T18:40:50.730Z,99303.09
2022-09-15T18:43:18.469Z,99313.56
2022-09-15T18:45:46.222Z,99316.28
2022-09-15T18:48:14.241Z,99317.25
2022-09-15T18:50:44.276Z,99330.34
2022-09-15T18:53:12.299Z,99329.53
2022-09-15T18:55:41.157Z,99331.28
2022-09-15T18:58:10.357Z,99338.28
2022-09-15T19:00:38.286Z,99338.31
2022-09-15T19:03:09.236Z,99347.03
2022-09-15T19:05:37.201Z,99342.72
2022-09-15T19:08:05.285Z,99345.34
2022-09-15T19:10:32.856Z,99341.94
2022-09-15T19:13:00.382Z,99355.88
2022-09-15T19:15:33.595Z,99354.19
2022-09-15T19:18:01.902Z,99351.69
2022-09-15T19:20:29.827Z,99352.59
2022-09-15T19:22:57.929Z,99352.59
2022-09-15T19:25:25.543Z,99352.66
2022-09-15T19:27:53.234Z,99352.75
2022-09-15T19:30:20.960Z,99359.72
2022-09-15T19:32:49.861Z,99364.91
2022-09-15T19:35:17.490Z,99358.84
2022-09-15T19:37:45.060Z,99366.69
2022-09-15T19:40:15.041Z,99372.78
2022-09-15T19:42:43.930Z,99370.25
2022-09-15T19:45:12.896Z,99363.34
2022-09-15T19:47:41.374Z,99372.03
2022-09-15T19:50:12.645Z,99367.69
2022-09-15T19:52:40.652Z,99372.03
2022-09-15T19:55:09.575Z,99373.78
2022-09-15T19:57:39.656Z,99371.22
2022-09-15T20:00:09.489Z,99379.00
2022-09-15T20:02:37.278Z,99369.53
2022-09-15T20:05:05.488Z,99370.38
2022-09-15T20:07:34.373Z,99382.50
2022-09-15T20:10:01.904Z,99379.13
2022-09-15T20:12:30.019Z,99375.66
2022-09-15T20:14:57.612Z,99368.78
2022-09-15T20:17:25.277Z,99371.38
2022-09-15T20:19:52.898Z,99373.13
2022-09-15T20:22:22.227Z,99369.69
2022-09-15T20:24:51.547Z,99378.31
2022-09-15T20:27:19.110Z,99380.91
2022-09-15T20:29:46.645Z,99380.94
2022-09-15T20:32:14.226Z,99387.84
2022-09-15T20:34:41.998Z,99380.06
2022-09-15T20:37:09.528Z,99386.09
2022-09-15T20:39:37.166Z,99393.03
2022-09-15T20:42:06.449Z,99393.03
2022-09-15T20:44:33.999Z,99390.44
2022-09-15T20:47:01.571Z,99392.16
2022-09-15T20:49:29.166Z,99389.56
2022-09-15T20:51:56.666Z,99389.59
2022-09-15T20:54:24.233Z,99393.91
2022-09-15T20:56:51.868Z,99391.34
2022-09-15T20:59:20.719Z,99394.75
2022-09-15T21:01:48.567Z,99393.91
2022-09-15T21:04:16.129Z,99403.38
2022-09-15T21:06:43.742Z,99392.19
2022-09-15T21:09:11.326Z,99401.69
2022-09-15T21:11:39.724Z,99397.34
2022-09-15T21:14:07.469Z,99396.50
2022-09-15T21:16:36.363Z,99396.50
2022-09-15T21:19:04.252Z,99394.78
2022-09-15T21:21:33.776Z,99406.84
2022-09-15T21:24:03.835Z,99405.13
2022-09-15T21:26:33.154Z,99401.69
2022-09-15T21:29:00.797Z,99404.25
2022-09-15T21:31:30.445Z,99412.91
2022-09-15T21:34:00.366Z,99407.69
2022-09-15T21:36:29.788Z,99405.09
2022-09-15T21:38:58.800Z,99408.53
2022-09-15T21:41:28.971Z,99413.72
2022-09-15T21:43:58.182Z,99409.41
2022-09-15T21:46:27.668Z,99410.28
2022-09-15T21:48:57.416Z,99411.13
2022-09-15T21:51:28.110Z,99408.53
2022-09-15T21:53:57.007Z,99412.88
2022-09-15T21:56:25.595Z,99419.78
2022-09-15T21:58:54.168Z,99411.13
2022-09-15T22:01:23.325Z,99407.69
2022-09-15T22:03:52.881Z,99410.28
2022-09-15T22:06:27.370Z,99407.66
2022-09-15T22:08:56.445Z,99405.06
2022-09-15T22:11:24.056Z,99407.69
2022-09-15T22:13:51.690Z,99415.44
2022-09-15T22:16:21.392Z,99418.88
2022-09-15T22:18:49.992Z,99419.75
2022-09-15T22:21:19.896Z,99418.88
2022-09-15T22:23:48.977Z,99424.06
2022-09-15T22:26:19.333Z,99430.97
2022-09-15T22:28:47.152Z,99426.66
2022-09-15T22:31:16.545Z,99431.00
2022-09-15T22:33:44.507Z,99436.16
2022-09-15T22:36:12.885Z,99443.06
2022-09-15T22:38:40.683Z,99446.53
2022-09-15T22:41:11.861Z,99443.13
2022-09-15T22:43:41.755Z,99443.13
2022-09-15T22:46:09.849Z,99436.19
2022-09-15T22:48:42.457Z,99443.97
2022-09-15T22:51:11.507Z,99435.34
2022-09-15T22:53:39.308Z,99444.84
2022-09-15T22:56:09.589Z,99441.38
2022-09-15T22:58:38.391Z,99443.97
2022-09-15T23:01:09.423Z,99440.53
2022-09-15T23:03:37.130Z,99446.56
2022-09-15T23:06:05.637Z,99448.28
2022-09-15T23:08:33.799Z,99437.94
2022-09-15T23:11:03.132Z,99447.44
2022-09-15T23:13:30.672Z,99437.91
2022-09-15T23:15:58.263Z,99444.84
2022-09-15T23:18:27.798Z,99451.75
2022-09-15T23:21:00.269Z,99437.06
2022-09-15T23:23:28.737Z,99440.53
2022-09-15T23:25:56.444Z,99441.38
2022-09-15T23:28:24.411Z,99443.97
2022-09-15T23:30:52.905Z,99442.22
2022-09-15T23:33:20.813Z,99448.28
2022-09-15T23:35:50.014Z,99449.16
2022-09-15T23:38:18.146Z,99447.44
2022-09-15T23:40:47.603Z,99453.44
2022-09-15T23:43:15.926Z,99459.50
2022-09-15T23:45:44.611Z,99458.63
2022-09-15T23:48:13.509Z,99455.16
2022-09-15T23:50:41.863Z,99453.44
2022-09-15T23:53:10.948Z,99454.28
2022-09-15T23:55:38.609Z,99451.72
2022-09-15T23:58:06.350Z,99450.00
